Carrollton, Alabama
Current Conditions -  °F | °C
As of 7:53 AM on Monday 24 Nov 2014 (Local Time) from KTCL Reporting Station
Scattered Clouds Scattered Clouds  
Wind Chill: 64°   Ceiling: Unl
Heat Index: 64°   Visibility: 7mi
Dew Point: 59°   Wind: 9mph
Humidity: 84%   Direction: 220°SW
Pressure: 29.79"   Gusts: NA
Location:  33.26°N, 88.1°W
Report Text: KTCL 241353Z 22008KT 7SM FEW027 SCT034 18/15 A2979 RMK AO2 SLP087 T01780150
Loading
Personal Weather Stations






























Interactive Weather Map New forecast layout! Learn more

10-Day Weather Forecast

Advertisements
Track Severe Weather on mobile